sensor_id;sensor_type;location;lat;lon;timestamp;P1;durP1;ratioP1;P2;durP2;ratioP2
39266;SDS011;24967;51.154;13.812;2023-08-17T00:01:31;9.52;;;8.40;;
39266;SDS011;24967;51.154;13.812;2023-08-17T00:03:57;9.35;;;8.45;;
39266;SDS011;24967;51.154;13.812;2023-08-17T00:06:24;9.35;;;8.30;;
39266;SDS011;24967;51.154;13.812;2023-08-17T00:08:50;8.35;;;7.75;;
39266;SDS011;24967;51.154;13.812;2023-08-17T00:11:17;9.43;;;8.40;;
39266;SDS011;24967;51.154;13.812;2023-08-17T00:13:43;9.30;;;8.48;;
39266;SDS011;24967;51.154;13.812;2023-08-17T00:16:10;9.63;;;8.70;;
39266;SDS011;24967;51.154;13.812;2023-08-17T00:18:38;9.45;;;8.25;;
39266;SDS011;24967;51.154;13.812;2023-08-17T00:21:04;9.35;;;8.48;;
39266;SDS011;24967;51.154;13.812;2023-08-17T00:23:31;9.20;;;8.30;;
39266;SDS011;24967;51.154;13.812;2023-08-17T00:25:57;8.95;;;8.15;;
39266;SDS011;24967;51.154;13.812;2023-08-17T00:28:24;10.10;;;9.07;;
39266;SDS011;24967;51.154;13.812;2023-08-17T00:30:50;8.95;;;8.15;;
39266;SDS011;24967;51.154;13.812;2023-08-17T00:33:17;9.77;;;8.77;;
39266;SDS011;24967;51.154;13.812;2023-08-17T00:35:45;10.18;;;9.13;;
39266;SDS011;24967;51.154;13.812;2023-08-17T00:38:11;9.18;;;8.38;;
39266;SDS011;24967;51.154;13.812;2023-08-17T00:40:38;9.57;;;8.60;;
39266;SDS011;24967;51.154;13.812;2023-08-17T00:43:05;9.75;;;8.88;;
39266;SDS011;24967;51.154;13.812;2023-08-17T00:45:31;10.55;;;9.10;;
39266;SDS011;24967;51.154;13.812;2023-08-17T00:47:58;10.32;;;9.25;;
39266;SDS011;24967;51.154;13.812;2023-08-17T00:50:25;11.88;;;9.70;;
39266;SDS011;24967;51.154;13.812;2023-08-17T00:52:55;12.15;;;10.52;;
39266;SDS011;24967;51.154;13.812;2023-08-17T00:55:22;13.50;;;10.75;;
39266;SDS011;24967;51.154;13.812;2023-08-17T00:57:49;13.25;;;9.82;;
39266;SDS011;24967;51.154;13.812;2023-08-17T01:00:16;11.52;;;10.05;;
39266;SDS011;24967;51.154;13.812;2023-08-17T01:02:44;10.98;;;9.88;;
39266;SDS011;24967;51.154;13.812;2023-08-17T01:05:10;10.57;;;9.50;;
39266;SDS011;24967;51.154;13.812;2023-08-17T01:07:37;10.43;;;9.35;;
39266;SDS011;24967;51.154;13.812;2023-08-17T01:10:05;12.10;;;10.05;;
39266;SDS011;24967;51.154;13.812;2023-08-17T01:12:36;11.02;;;9.65;;
39266;SDS011;24967;51.154;13.812;2023-08-17T01:15:09;11.10;;;9.88;;
39266;SDS011;24967;51.154;13.812;2023-08-17T01:17:42;9.68;;;8.68;;
39266;SDS011;24967;51.154;13.812;2023-08-17T01:20:14;10.55;;;9.55;;
39266;SDS011;24967;51.154;13.812;2023-08-17T01:22:42;9.88;;;8.98;;
39266;SDS011;24967;51.154;13.812;2023-08-17T01:25:13;10.23;;;9.33;;
39266;SDS011;24967;51.154;13.812;2023-08-17T01:27:41;10.40;;;9.15;;
39266;SDS011;24967;51.154;13.812;2023-08-17T01:30:11;10.85;;;9.75;;
39266;SDS011;24967;51.154;13.812;2023-08-17T01:32:40;14.90;;;10.63;;
39266;SDS011;24967;51.154;13.812;2023-08-17T01:35:15;14.10;;;10.77;;
39266;SDS011;24967;51.154;13.812;2023-08-17T01:37:46;11.80;;;10.20;;
39266;SDS011;24967;51.154;13.812;2023-08-17T01:40:17;11.00;;;9.93;;
39266;SDS011;24967;51.154;13.812;2023-08-17T01:42:45;10.50;;;9.50;;
39266;SDS011;24967;51.154;13.812;2023-08-17T01:45:12;13.70;;;12.30;;
39266;SDS011;24967;51.154;13.812;2023-08-17T01:47:39;12.98;;;11.63;;
39266;SDS011;24967;51.154;13.812;2023-08-17T01:50:06;12.40;;;11.18;;
39266;SDS011;24967;51.154;13.812;2023-08-17T01:52:32;11.60;;;10.40;;
39266;SDS011;24967;51.154;13.812;2023-08-17T01:55:00;11.75;;;10.63;;
39266;SDS011;24967;51.154;13.812;2023-08-17T01:57:27;13.27;;;11.43;;
39266;SDS011;24967;51.154;13.812;2023-08-17T01:59:54;12.50;;;11.00;;
39266;SDS011;24967;51.154;13.812;2023-08-17T02:02:21;14.00;;;11.05;;
39266;SDS011;24967;51.154;13.812;2023-08-17T02:04:47;12.18;;;10.32;;
39266;SDS011;24967;51.154;13.812;2023-08-17T02:07:14;11.02;;;9.93;;
39266;SDS011;24967;51.154;13.812;2023-08-17T02:09:40;10.00;;;9.15;;
39266;SDS011;24967;51.154;13.812;2023-08-17T02:12:07;9.88;;;8.63;;
39266;SDS011;24967;51.154;13.812;2023-08-17T02:14:35;10.30;;;9.15;;
39266;SDS011;24967;51.154;13.812;2023-08-17T02:17:02;10.50;;;9.00;;
39266;SDS011;24967;51.154;13.812;2023-08-17T02:19:30;9.80;;;8.80;;
39266;SDS011;24967;51.154;13.812;2023-08-17T02:21:57;10.52;;;8.57;;
39266;SDS011;24967;51.154;13.812;2023-08-17T02:24:23;10.25;;;9.05;;
39266;SDS011;24967;51.154;13.812;2023-08-17T02:26:50;10.05;;;9.00;;
39266;SDS011;24967;51.154;13.812;2023-08-17T02:29:17;10.75;;;9.50;;
39266;SDS011;24967;51.154;13.812;2023-08-17T02:31:44;10.40;;;9.40;;
39266;SDS011;24967;51.154;13.812;2023-08-17T02:34:11;12.95;;;9.63;;
39266;SDS011;24967;51.154;13.812;2023-08-17T02:36:38;10.30;;;9.30;;
39266;SDS011;24967;51.154;13.812;2023-08-17T02:39:04;9.35;;;8.45;;
39266;SDS011;24967;51.154;13.812;2023-08-17T02:41:31;11.63;;;9.60;;
39266;SDS011;24967;51.154;13.812;2023-08-17T02:43:57;10.23;;;8.77;;
39266;SDS011;24967;51.154;13.812;2023-08-17T02:46:24;9.38;;;8.48;;
39266;SDS011;24967;51.154;13.812;2023-08-17T02:48:52;9.57;;;8.60;;
39266;SDS011;24967;51.154;13.812;2023-08-17T02:51:19;9.57;;;8.65;;
39266;SDS011;24967;51.154;13.812;2023-08-17T02:53:45;9.00;;;8.20;;
39266;SDS011;24967;51.154;13.812;2023-08-17T02:56:12;11.23;;;8.98;;
39266;SDS011;24967;51.154;13.812;2023-08-17T02:58:38;11.20;;;8.88;;
39266;SDS011;24967;51.154;13.812;2023-08-17T03:01:05;8.93;;;8.05;;
39266;SDS011;24967;51.154;13.812;2023-08-17T03:03:32;10.63;;;8.25;;
39266;SDS011;24967;51.154;13.812;2023-08-17T03:06:00;9.40;;;8.60;;
39266;SDS011;24967;51.154;13.812;2023-08-17T03:08:27;9.52;;;8.23;;
39266;SDS011;24967;51.154;13.812;2023-08-17T03:10:53;9.75;;;8.75;;
39266;SDS011;24967;51.154;13.812;2023-08-17T03:13:20;8.85;;;7.95;;
39266;SDS011;24967;51.154;13.812;2023-08-17T03:15:47;9.98;;;8.95;;
39266;SDS011;24967;51.154;13.812;2023-08-17T03:18:13;10.68;;;8.93;;
39266;SDS011;24967;51.154;13.812;2023-08-17T03:20:39;10.88;;;8.73;;
39266;SDS011;24967;51.154;13.812;2023-08-17T03:23:07;9.40;;;8.60;;
39266;SDS011;24967;51.154;13.812;2023-08-17T03:25:34;9.50;;;8.70;;
39266;SDS011;24967;51.154;13.812;2023-08-17T03:28:00;10.15;;;8.60;;
39266;SDS011;24967;51.154;13.812;2023-08-17T03:30:27;8.82;;;8.02;;
39266;SDS011;24967;51.154;13.812;2023-08-17T03:32:53;8.27;;;7.57;;
39266;SDS011;24967;51.154;13.812;2023-08-17T03:35:20;9.35;;;8.35;;
39266;SDS011;24967;51.154;13.812;2023-08-17T03:37:47;9.63;;;8.73;;
39266;SDS011;24967;51.154;13.812;2023-08-17T03:40:14;8.90;;;8.10;;
39266;SDS011;24967;51.154;13.812;2023-08-17T03:42:41;9.40;;;8.45;;
39266;SDS011;24967;51.154;13.812;2023-08-17T03:45:08;9.15;;;8.27;;
39266;SDS011;24967;51.154;13.812;2023-08-17T03:47:35;9.20;;;8.23;;
39266;SDS011;24967;51.154;13.812;2023-08-17T03:50:01;8.95;;;8.15;;
39266;SDS011;24967;51.154;13.812;2023-08-17T03:52:28;10.73;;;9.65;;
39266;SDS011;24967;51.154;13.812;2023-08-17T03:54:54;10.25;;;9.30;;
39266;SDS011;24967;51.154;13.812;2023-08-17T03:57:22;10.32;;;9.27;;
39266;SDS011;24967;51.154;13.812;2023-08-17T03:59:49;10.20;;;9.07;;
39266;SDS011;24967;51.154;13.812;2023-08-17T04:02:15;9.40;;;8.50;;
39266;SDS011;24967;51.154;13.812;2023-08-17T04:04:42;9.18;;;8.32;;
39266;SDS011;24967;51.154;13.812;2023-08-17T04:07:08;9.00;;;8.18;;
39266;SDS011;24967;51.154;13.812;2023-08-17T04:09:35;8.27;;;7.50;;
39266;SDS011;24967;51.154;13.812;2023-08-17T04:12:01;8.13;;;7.53;;
39266;SDS011;24967;51.154;13.812;2023-08-17T04:14:31;8.13;;;7.32;;
39266;SDS011;24967;51.154;13.812;2023-08-17T04:16:57;8.25;;;7.40;;
39266;SDS011;24967;51.154;13.812;2023-08-17T04:19:24;7.20;;;6.63;;
39266;SDS011;24967;51.154;13.812;2023-08-17T04:21:50;9.43;;;7.45;;
39266;SDS011;24967;51.154;13.812;2023-08-17T04:24:17;7.93;;;7.13;;
39266;SDS011;24967;51.154;13.812;2023-08-17T04:26:43;8.15;;;7.18;;
39266;SDS011;24967;51.154;13.812;2023-08-17T04:29:10;8.27;;;7.47;;
39266;SDS011;24967;51.154;13.812;2023-08-17T04:31:38;8.90;;;7.50;;
39266;SDS011;24967;51.154;13.812;2023-08-17T04:34:05;10.27;;;7.60;;
39266;SDS011;24967;51.154;13.812;2023-08-17T04:36:31;8.27;;;7.57;;
39266;SDS011;24967;51.154;13.812;2023-08-17T04:38:58;8.07;;;7.35;;
39266;SDS011;24967;51.154;13.812;2023-08-17T04:41:24;8.07;;;7.43;;
39266;SDS011;24967;51.154;13.812;2023-08-17T04:43:51;8.10;;;7.40;;
39266;SDS011;24967;51.154;13.812;2023-08-17T04:46:17;7.57;;;6.90;;
39266;SDS011;24967;51.154;13.812;2023-08-17T04:48:45;8.40;;;7.50;;
39266;SDS011;24967;51.154;13.812;2023-08-17T04:51:11;7.80;;;7.22;;
39266;SDS011;24967;51.154;13.812;2023-08-17T04:53:38;7.05;;;6.50;;
39266;SDS011;24967;51.154;13.812;2023-08-17T04:56:05;7.13;;;6.53;;
39266;SDS011;24967;51.154;13.812;2023-08-17T04:58:31;8.15;;;7.35;;
39266;SDS011;24967;51.154;13.812;2023-08-17T05:00:58;8.20;;;7.40;;
39266;SDS011;24967;51.154;13.812;2023-08-17T05:03:25;8.05;;;7.32;;
39266;SDS011;24967;51.154;13.812;2023-08-17T05:05:53;8.07;;;7.22;;
39266;SDS011;24967;51.154;13.812;2023-08-17T05:08:19;7.72;;;7.03;;
39266;SDS011;24967;51.154;13.812;2023-08-17T05:10:47;7.30;;;6.72;;
39266;SDS011;24967;51.154;13.812;2023-08-17T05:13:13;7.18;;;6.47;;
39266;SDS011;24967;51.154;13.812;2023-08-17T05:15:40;11.90;;;6.88;;
39266;SDS011;24967;51.154;13.812;2023-08-17T05:18:07;10.57;;;6.70;;
39266;SDS011;24967;51.154;13.812;2023-08-17T05:20:34;7.18;;;6.47;;
39266;SDS011;24967;51.154;13.812;2023-08-17T05:23:02;9.35;;;6.78;;
39266;SDS011;24967;51.154;13.812;2023-08-17T05:25:29;7.22;;;6.65;;
39266;SDS011;24967;51.154;13.812;2023-08-17T05:27:55;7.60;;;5.95;;
39266;SDS011;24967;51.154;13.812;2023-08-17T05:30:22;6.50;;;5.90;;
39266;SDS011;24967;51.154;13.812;2023-08-17T05:32:48;6.57;;;5.97;;
39266;SDS011;24967;51.154;13.812;2023-08-17T05:35:15;6.72;;;6.13;;
39266;SDS011;24967;51.154;13.812;2023-08-17T05:37:41;7.70;;;6.50;;
39266;SDS011;24967;51.154;13.812;2023-08-17T05:40:10;7.35;;;6.07;;
39266;SDS011;24967;51.154;13.812;2023-08-17T05:42:37;6.07;;;5.68;;
39266;SDS011;24967;51.154;13.812;2023-08-17T05:45:04;8.75;;;5.90;;
39266;SDS011;24967;51.154;13.812;2023-08-17T05:47:31;6.18;;;5.68;;
39266;SDS011;24967;51.154;13.812;2023-08-17T05:49:57;5.75;;;5.35;;
39266;SDS011;24967;51.154;13.812;2023-08-17T05:52:24;6.47;;;5.75;;
39266;SDS011;24967;51.154;13.812;2023-08-17T05:54:50;6.00;;;5.50;;
39266;SDS011;24967;51.154;13.812;2023-08-17T05:57:18;5.15;;;4.78;;
39266;SDS011;24967;51.154;13.812;2023-08-17T05:59:45;6.25;;;5.10;;
39266;SDS011;24967;51.154;13.812;2023-08-17T06:02:11;5.20;;;4.63;;
39266;SDS011;24967;51.154;13.812;2023-08-17T06:04:38;5.00;;;4.45;;
39266;SDS011;24967;51.154;13.812;2023-08-17T06:07:04;5.90;;;5.30;;
39266;SDS011;24967;51.154;13.812;2023-08-17T06:09:32;5.60;;;5.10;;
39266;SDS011;24967;51.154;13.812;2023-08-17T06:11:58;5.20;;;4.90;;
39266;SDS011;24967;51.154;13.812;2023-08-17T06:14:26;5.78;;;5.47;;
39266;SDS011;24967;51.154;13.812;2023-08-17T06:16:53;5.60;;;5.20;;
39266;SDS011;24967;51.154;13.812;2023-08-17T06:19:19;5.55;;;5.00;;
39266;SDS011;24967;51.154;13.812;2023-08-17T06:21:46;7.40;;;5.38;;
39266;SDS011;24967;51.154;13.812;2023-08-17T06:24:12;5.53;;;5.13;;
39266;SDS011;24967;51.154;13.812;2023-08-17T06:26:39;5.70;;;5.25;;
39266;SDS011;24967;51.154;13.812;2023-08-17T06:29:05;10.40;;;5.40;;
39266;SDS011;24967;51.154;13.812;2023-08-17T06:31:33;6.38;;;5.65;;
39266;SDS011;24967;51.154;13.812;2023-08-17T06:34:00;5.40;;;4.90;;
39266;SDS011;24967;51.154;13.812;2023-08-17T06:36:30;5.25;;;4.85;;
39266;SDS011;24967;51.154;13.812;2023-08-17T06:38:57;4.75;;;4.45;;
39266;SDS011;24967;51.154;13.812;2023-08-17T06:41:23;6.53;;;5.05;;
39266;SDS011;24967;51.154;13.812;2023-08-17T06:43:50;4.70;;;4.40;;
39266;SDS011;24967;51.154;13.812;2023-08-17T06:46:17;4.80;;;4.35;;
39266;SDS011;24967;51.154;13.812;2023-08-17T06:48:45;5.63;;;5.00;;
39266;SDS011;24967;51.154;13.812;2023-08-17T06:51:12;6.15;;;4.72;;
39266;SDS011;24967;51.154;13.812;2023-08-17T06:53:38;5.82;;;5.00;;
39266;SDS011;24967;51.154;13.812;2023-08-17T06:56:05;5.70;;;5.28;;
39266;SDS011;24967;51.154;13.812;2023-08-17T06:58:31;5.80;;;5.18;;
39266;SDS011;24967;51.154;13.812;2023-08-17T07:00:58;5.20;;;4.82;;
39266;SDS011;24967;51.154;13.812;2023-08-17T07:03:24;5.97;;;5.47;;
39266;SDS011;24967;51.154;13.812;2023-08-17T07:05:52;6.68;;;6.00;;
39266;SDS011;24967;51.154;13.812;2023-08-17T07:08:19;6.22;;;5.82;;
39266;SDS011;24967;51.154;13.812;2023-08-17T07:10:45;5.80;;;5.40;;
39266;SDS011;24967;51.154;13.812;2023-08-17T07:13:12;5.00;;;4.60;;
39266;SDS011;24967;51.154;13.812;2023-08-17T07:15:38;4.95;;;4.55;;
39266;SDS011;24967;51.154;13.812;2023-08-17T07:18:05;4.90;;;4.53;;
39266;SDS011;24967;51.154;13.812;2023-08-17T07:20:32;4.88;;;4.57;;
39266;SDS011;24967;51.154;13.812;2023-08-17T07:23:00;4.78;;;4.40;;
39266;SDS011;24967;51.154;13.812;2023-08-17T07:25:26;3.85;;;3.60;;
39266;SDS011;24967;51.154;13.812;2023-08-17T07:27:53;4.32;;;4.03;;
39266;SDS011;24967;51.154;13.812;2023-08-17T07:30:19;9.60;;;4.95;;
39266;SDS011;24967;51.154;13.812;2023-08-17T07:32:46;4.07;;;3.88;;
39266;SDS011;24967;51.154;13.812;2023-08-17T07:35:13;4.97;;;4.55;;
39266;SDS011;24967;51.154;13.812;2023-08-17T07:37:39;4.00;;;3.70;;
39266;SDS011;24967;51.154;13.812;2023-08-17T07:40:08;5.00;;;4.50;;
39266;SDS011;24967;51.154;13.812;2023-08-17T07:42:35;4.25;;;3.95;;
39266;SDS011;24967;51.154;13.812;2023-08-17T07:45:02;4.18;;;3.88;;
39266;SDS011;24967;51.154;13.812;2023-08-17T07:47:31;4.28;;;3.50;;
39266;SDS011;24967;51.154;13.812;2023-08-17T07:49:57;4.78;;;3.38;;
39266;SDS011;24967;51.154;13.812;2023-08-17T07:52:24;4.60;;;4.05;;
39266;SDS011;24967;51.154;13.812;2023-08-17T07:54:50;4.78;;;3.47;;
39266;SDS011;24967;51.154;13.812;2023-08-17T07:57:18;4.43;;;3.38;;
39266;SDS011;24967;51.154;13.812;2023-08-17T07:59:44;3.40;;;3.20;;
39266;SDS011;24967;51.154;13.812;2023-08-17T08:02:11;3.25;;;3.10;;
39266;SDS011;24967;51.154;13.812;2023-08-17T08:04:37;4.00;;;3.70;;
39266;SDS011;24967;51.154;13.812;2023-08-17T08:07:04;3.47;;;3.17;;
39266;SDS011;24967;51.154;13.812;2023-08-17T08:09:31;3.72;;;3.42;;
39266;SDS011;24967;51.154;13.812;2023-08-17T08:11:59;3.92;;;3.55;;
39266;SDS011;24967;51.154;13.812;2023-08-17T08:14:26;3.25;;;2.95;;
39266;SDS011;24967;51.154;13.812;2023-08-17T08:16:53;2.80;;;2.70;;
39266;SDS011;24967;51.154;13.812;2023-08-17T08:19:19;3.67;;;3.38;;
39266;SDS011;24967;51.154;13.812;2023-08-17T08:21:46;3.25;;;3.05;;
39266;SDS011;24967;51.154;13.812;2023-08-17T08:24:12;4.28;;;3.33;;
39266;SDS011;24967;51.154;13.812;2023-08-17T08:26:39;3.97;;;3.50;;
39266;SDS011;24967;51.154;13.812;2023-08-17T08:29:05;3.50;;;3.20;;
39266;SDS011;24967;51.154;13.812;2023-08-17T08:31:33;3.00;;;2.90;;
39266;SDS011;24967;51.154;13.812;2023-08-17T08:34:00;3.20;;;2.90;;
39266;SDS011;24967;51.154;13.812;2023-08-17T08:36:26;3.15;;;3.05;;
39266;SDS011;24967;51.154;13.812;2023-08-17T08:38:53;3.40;;;3.20;;
39266;SDS011;24967;51.154;13.812;2023-08-17T08:41:19;3.72;;;3.15;;
39266;SDS011;24967;51.154;13.812;2023-08-17T08:43:46;4.22;;;3.50;;
39266;SDS011;24967;51.154;13.812;2023-08-17T08:46:13;4.13;;;3.85;;
39266;SDS011;24967;51.154;13.812;2023-08-17T08:48:44;3.40;;;3.20;;
39266;SDS011;24967;51.154;13.812;2023-08-17T08:51:16;4.05;;;3.65;;
39266;SDS011;24967;51.154;13.812;2023-08-17T08:53:49;3.67;;;3.47;;
39266;SDS011;24967;51.154;13.812;2023-08-17T08:56:23;4.05;;;3.85;;
39266;SDS011;24967;51.154;13.812;2023-08-17T08:58:51;3.60;;;3.40;;
39266;SDS011;24967;51.154;13.812;2023-08-17T09:01:18;3.20;;;3.00;;
39266;SDS011;24967;51.154;13.812;2023-08-17T09:03:47;3.50;;;3.30;;
39266;SDS011;24967;51.154;13.812;2023-08-17T09:06:14;3.60;;;3.40;;
39266;SDS011;24967;51.154;13.812;2023-08-17T09:08:42;3.55;;;3.35;;
39266;SDS011;24967;51.154;13.812;2023-08-17T09:11:10;3.55;;;3.20;;
39266;SDS011;24967;51.154;13.812;2023-08-17T09:16:04;4.18;;;3.50;;
39266;SDS011;24967;51.154;13.812;2023-08-17T09:18:30;3.70;;;3.40;;
39266;SDS011;24967;51.154;13.812;2023-08-17T09:20:59;3.92;;;3.58;;
39266;SDS011;24967;51.154;13.812;2023-08-17T09:23:25;4.03;;;3.72;;
39266;SDS011;24967;51.154;13.812;2023-08-17T09:25:52;4.03;;;3.83;;
39266;SDS011;24967;51.154;13.812;2023-08-17T09:28:23;4.13;;;3.92;;
39266;SDS011;24967;51.154;13.812;2023-08-17T09:33:56;4.20;;;4.00;;
39266;SDS011;24967;51.154;13.812;2023-08-17T09:36:25;3.90;;;3.70;;
39266;SDS011;24967;51.154;13.812;2023-08-17T09:38:52;4.60;;;4.25;;
39266;SDS011;24967;51.154;13.812;2023-08-17T09:41:29;5.35;;;4.95;;
39266;SDS011;24967;51.154;13.812;2023-08-17T09:43:55;4.68;;;4.35;;
39266;SDS011;24967;51.154;13.812;2023-08-17T09:46:24;5.10;;;4.80;;
39266;SDS011;24967;51.154;13.812;2023-08-17T09:48:53;4.63;;;4.32;;
39266;SDS011;24967;51.154;13.812;2023-08-17T09:51:20;5.82;;;4.72;;
39266;SDS011;24967;51.154;13.812;2023-08-17T09:53:52;4.93;;;4.63;;
39266;SDS011;24967;51.154;13.812;2023-08-17T09:56:19;5.60;;;5.10;;
39266;SDS011;24967;51.154;13.812;2023-08-17T09:58:47;4.95;;;4.65;;
39266;SDS011;24967;51.154;13.812;2023-08-17T10:01:14;5.53;;;5.13;;
39266;SDS011;24967;51.154;13.812;2023-08-17T10:03:42;6.20;;;4.65;;
39266;SDS011;24967;51.154;13.812;2023-08-17T10:06:11;5.05;;;4.72;;
39266;SDS011;24967;51.154;13.812;2023-08-17T10:08:42;5.03;;;4.72;;
39266;SDS011;24967;51.154;13.812;2023-08-17T10:11:11;5.82;;;5.43;;
39266;SDS011;24967;51.154;13.812;2023-08-17T10:13:40;5.40;;;5.10;;
39266;SDS011;24967;51.154;13.812;2023-08-17T10:16:11;5.28;;;4.93;;
39266;SDS011;24967;51.154;13.812;2023-08-17T10:18:51;5.50;;;5.00;;
39266;SDS011;24967;51.154;13.812;2023-08-17T10:21:23;7.88;;;5.03;;
39266;SDS011;24967;51.154;13.812;2023-08-17T10:23:55;5.63;;;5.25;;
39266;SDS011;24967;51.154;13.812;2023-08-17T10:26:24;6.50;;;5.88;;
39266;SDS011;24967;51.154;13.812;2023-08-17T10:28:51;5.95;;;5.40;;
39266;SDS011;24967;51.154;13.812;2023-08-17T10:31:19;6.65;;;6.00;;
39266;SDS011;24967;51.154;13.812;2023-08-17T10:33:46;5.55;;;4.93;;
39266;SDS011;24967;51.154;13.812;2023-08-17T10:39:23;6.30;;;5.07;;
39266;SDS011;24967;51.154;13.812;2023-08-17T10:41:52;5.68;;;5.28;;
39266;SDS011;24967;51.154;13.812;2023-08-17T10:47:20;8.48;;;5.70;;
39266;SDS011;24967;51.154;13.812;2023-08-17T10:49:48;6.28;;;5.78;;
39266;SDS011;24967;51.154;13.812;2023-08-17T10:52:15;6.35;;;5.75;;
39266;SDS011;24967;51.154;13.812;2023-08-17T10:54:52;6.00;;;5.60;;
39266;SDS011;24967;51.154;13.812;2023-08-17T10:57:28;6.32;;;5.60;;
39266;SDS011;24967;51.154;13.812;2023-08-17T11:00:05;6.50;;;5.53;;
39266;SDS011;24967;51.154;13.812;2023-08-17T11:02:45;6.05;;;5.47;;
39266;SDS011;24967;51.154;13.812;2023-08-17T11:05:11;6.30;;;5.70;;
39266;SDS011;24967;51.154;13.812;2023-08-17T11:07:39;6.57;;;6.00;;
39266;SDS011;24967;51.154;13.812;2023-08-17T11:13:30;6.65;;;6.25;;
39266;SDS011;24967;51.154;13.812;2023-08-17T11:15:58;6.50;;;5.90;;
39266;SDS011;24967;51.154;13.812;2023-08-17T11:18:25;6.95;;;6.35;;
39266;SDS011;24967;51.154;13.812;2023-08-17T11:20:52;6.63;;;6.18;;
39266;SDS011;24967;51.154;13.812;2023-08-17T11:23:20;6.43;;;6.03;;
39266;SDS011;24967;51.154;13.812;2023-08-17T11:25:48;6.85;;;6.25;;
39266;SDS011;24967;51.154;13.812;2023-08-17T11:28:16;6.93;;;6.15;;
39266;SDS011;24967;51.154;13.812;2023-08-17T11:30:44;6.50;;;5.90;;
39266;SDS011;24967;51.154;13.812;2023-08-17T11:33:11;6.78;;;6.30;;
39266;SDS011;24967;51.154;13.812;2023-08-17T11:35:39;7.43;;;6.78;;
39266;SDS011;24967;51.154;13.812;2023-08-17T11:38:06;6.90;;;6.38;;
39266;SDS011;24967;51.154;13.812;2023-08-17T11:40:33;7.45;;;6.57;;
39266;SDS011;24967;51.154;13.812;2023-08-17T11:43:00;6.43;;;5.93;;
39266;SDS011;24967;51.154;13.812;2023-08-17T11:48:50;8.77;;;6.30;;
39266;SDS011;24967;51.154;13.812;2023-08-17T11:51:19;6.95;;;6.45;;
39266;SDS011;24967;51.154;13.812;2023-08-17T11:53:58;6.93;;;6.35;;
39266;SDS011;24967;51.154;13.812;2023-08-17T11:56:25;7.25;;;6.40;;
39266;SDS011;24967;51.154;13.812;2023-08-17T11:58:51;6.72;;;6.13;;
39266;SDS011;24967;51.154;13.812;2023-08-17T12:01:18;6.50;;;6.00;;
39266;SDS011;24967;51.154;13.812;2023-08-17T12:03:44;7.28;;;6.57;;
39266;SDS011;24967;51.154;13.812;2023-08-17T12:06:12;7.15;;;6.45;;
39266;SDS011;24967;51.154;13.812;2023-08-17T12:08:41;8.10;;;6.45;;
39266;SDS011;24967;51.154;13.812;2023-08-17T12:11:09;7.60;;;6.40;;
39266;SDS011;24967;51.154;13.812;2023-08-17T12:13:36;6.93;;;6.43;;
39266;SDS011;24967;51.154;13.812;2023-08-17T12:16:02;6.50;;;5.90;;
39266;SDS011;24967;51.154;13.812;2023-08-17T12:18:31;6.38;;;5.88;;
39266;SDS011;24967;51.154;13.812;2023-08-17T12:20:59;6.40;;;5.70;;
39266;SDS011;24967;51.154;13.812;2023-08-17T12:23:26;6.65;;;6.10;;
39266;SDS011;24967;51.154;13.812;2023-08-17T12:26:17;6.57;;;5.95;;
39266;SDS011;24967;51.154;13.812;2023-08-17T12:28:44;7.03;;;6.53;;
39266;SDS011;24967;51.154;13.812;2023-08-17T12:31:11;6.43;;;5.93;;
39266;SDS011;24967;51.154;13.812;2023-08-17T12:33:37;5.85;;;5.45;;
39266;SDS011;24967;51.154;13.812;2023-08-17T12:36:04;6.43;;;5.93;;
39266;SDS011;24967;51.154;13.812;2023-08-17T12:38:33;6.35;;;5.78;;
39266;SDS011;24967;51.154;13.812;2023-08-17T12:40:59;7.28;;;5.38;;
39266;SDS011;24967;51.154;13.812;2023-08-17T12:43:26;6.90;;;6.15;;
39266;SDS011;24967;51.154;13.812;2023-08-17T12:45:52;5.50;;;5.10;;
39266;SDS011;24967;51.154;13.812;2023-08-17T12:48:19;5.93;;;5.43;;
39266;SDS011;24967;51.154;13.812;2023-08-17T12:50:45;6.13;;;5.55;;
39266;SDS011;24967;51.154;13.812;2023-08-17T12:53:12;5.78;;;5.47;;
39266;SDS011;24967;51.154;13.812;2023-08-17T12:55:39;5.55;;;5.15;;
39266;SDS011;24967;51.154;13.812;2023-08-17T13:01:28;6.18;;;5.45;;
39266;SDS011;24967;51.154;13.812;2023-08-17T13:03:54;7.25;;;5.78;;
39266;SDS011;24967;51.154;13.812;2023-08-17T13:06:21;6.15;;;5.60;;
39266;SDS011;24967;51.154;13.812;2023-08-17T13:08:47;6.30;;;5.63;;
39266;SDS011;24967;51.154;13.812;2023-08-17T13:11:15;6.25;;;5.65;;
39266;SDS011;24967;51.154;13.812;2023-08-17T13:13:42;5.60;;;5.20;;
39266;SDS011;24967;51.154;13.812;2023-08-17T13:16:08;6.03;;;5.57;;
39266;SDS011;24967;51.154;13.812;2023-08-17T13:18:36;5.90;;;5.40;;
39266;SDS011;24967;51.154;13.812;2023-08-17T13:21:02;6.45;;;5.70;;
39266;SDS011;24967;51.154;13.812;2023-08-17T13:23:29;6.13;;;5.53;;
39266;SDS011;24967;51.154;13.812;2023-08-17T13:25:56;6.25;;;5.55;;
39266;SDS011;24967;51.154;13.812;2023-08-17T13:28:24;6.25;;;5.82;;
39266;SDS011;24967;51.154;13.812;2023-08-17T13:30:51;6.22;;;5.63;;
39266;SDS011;24967;51.154;13.812;2023-08-17T13:33:27;5.97;;;5.57;;
39266;SDS011;24967;51.154;13.812;2023-08-17T13:35:53;6.28;;;5.88;;
39266;SDS011;24967;51.154;13.812;2023-08-17T13:38:20;5.93;;;5.32;;
39266;SDS011;24967;51.154;13.812;2023-08-17T13:40:46;6.28;;;5.57;;
39266;SDS011;24967;51.154;13.812;2023-08-17T13:43:13;6.03;;;5.53;;
39266;SDS011;24967;51.154;13.812;2023-08-17T13:45:41;6.40;;;5.63;;
39266;SDS011;24967;51.154;13.812;2023-08-17T13:48:07;6.60;;;6.10;;
39266;SDS011;24967;51.154;13.812;2023-08-17T13:50:34;7.57;;;6.20;;
39266;SDS011;24967;51.154;13.812;2023-08-17T13:53:03;5.97;;;5.57;;
39266;SDS011;24967;51.154;13.812;2023-08-17T13:55:30;6.00;;;5.53;;
39266;SDS011;24967;51.154;13.812;2023-08-17T14:01:19;5.88;;;5.38;;
39266;SDS011;24967;51.154;13.812;2023-08-17T14:03:46;6.47;;;5.63;;
39266;SDS011;24967;51.154;13.812;2023-08-17T14:06:12;6.82;;;6.22;;
39266;SDS011;24967;51.154;13.812;2023-08-17T14:08:39;5.88;;;5.47;;
39266;SDS011;24967;51.154;13.812;2023-08-17T14:11:05;6.50;;;5.90;;
39266;SDS011;24967;51.154;13.812;2023-08-17T14:13:32;6.82;;;6.22;;
39266;SDS011;24967;51.154;13.812;2023-08-17T14:15:59;7.00;;;5.75;;
39266;SDS011;24967;51.154;13.812;2023-08-17T14:18:27;6.93;;;5.70;;
39266;SDS011;24967;51.154;13.812;2023-08-17T14:20:53;6.68;;;6.07;;
39266;SDS011;24967;51.154;13.812;2023-08-17T14:23:20;6.55;;;6.07;;
39266;SDS011;24967;51.154;13.812;2023-08-17T14:25:46;7.05;;;6.40;;
39266;SDS011;24967;51.154;13.812;2023-08-17T14:28:13;7.18;;;6.05;;
39266;SDS011;24967;51.154;13.812;2023-08-17T14:30:39;5.75;;;5.20;;
39266;SDS011;24967;51.154;13.812;2023-08-17T14:33:06;7.95;;;6.15;;
39266;SDS011;24967;51.154;13.812;2023-08-17T14:35:34;6.60;;;5.90;;
39266;SDS011;24967;51.154;13.812;2023-08-17T14:38:00;7.32;;;5.85;;
39266;SDS011;24967;51.154;13.812;2023-08-17T14:40:27;6.85;;;5.85;;
39266;SDS011;24967;51.154;13.812;2023-08-17T14:42:53;6.63;;;6.13;;
39266;SDS011;24967;51.154;13.812;2023-08-17T14:45:20;6.22;;;5.70;;
39266;SDS011;24967;51.154;13.812;2023-08-17T14:47:46;7.47;;;6.05;;
39266;SDS011;24967;51.154;13.812;2023-08-17T14:50:13;6.15;;;5.65;;
39266;SDS011;24967;51.154;13.812;2023-08-17T14:52:41;8.85;;;6.38;;
39266;SDS011;24967;51.154;13.812;2023-08-17T14:55:07;6.00;;;5.50;;
39266;SDS011;24967;51.154;13.812;2023-08-17T14:57:34;6.10;;;5.70;;